createdAt,value
2017-08-02T00:00:37.679Z,20.10
2017-08-02T00:03:05.193Z,19.90
2017-08-02T00:05:32.730Z,19.80
2017-08-02T00:08:00.251Z,19.70
2017-08-02T00:10:27.782Z,19.70
2017-08-02T00:12:55.318Z,19.60
2017-08-02T00:15:22.842Z,19.60
2017-08-02T00:17:50.387Z,19.60
2017-08-02T00:20:17.906Z,19.50
2017-08-02T00:22:45.453Z,19.50
2017-08-02T00:25:13.739Z,19.50
2017-08-02T00:27:41.275Z,19.50
2017-08-02T00:30:08.806Z,19.50
2017-08-02T00:32:36.343Z,19.40
2017-08-02T00:35:04.630Z,19.40
2017-08-02T00:37:32.167Z,19.30
2017-08-02T00:39:59.694Z,19.30
2017-08-02T00:42:27.230Z,19.30
2017-08-02T00:44:54.743Z,19.30
2017-08-02T00:47:22.291Z,19.30
2017-08-02T00:49:49.813Z,19.30
2017-08-02T00:52:17.331Z,19.30
2017-08-02T00:54:44.862Z,19.30
2017-08-02T00:57:12.377Z,19.30
2017-08-02T00:59:39.915Z,19.30
2017-08-02T01:02:07.427Z,19.20
2017-08-02T01:04:34.966Z,19.00
2017-08-02T01:07:02.483Z,18.90
2017-08-02T01:09:30.020Z,18.80
2017-08-02T01:11:58.303Z,18.80
2017-08-02T01:14:25.842Z,18.80
2017-08-02T01:16:54.136Z,18.70
2017-08-02T01:19:21.679Z,18.70
2017-08-02T01:21:49.204Z,18.80
2017-08-02T01:24:16.734Z,18.80
2017-08-02T01:26:44.269Z,18.70
2017-08-02T01:29:12.550Z,18.50
2017-08-02T01:31:40.850Z,18.50
2017-08-02T01:34:08.372Z,18.50
2017-08-02T01:36:35.914Z,18.40
2017-08-02T01:39:03.438Z,18.30
2017-08-02T01:41:30.974Z,18.20
2017-08-02T01:43:58.494Z,18.20
2017-08-02T01:46:26.799Z,18.10
2017-08-02T01:48:54.318Z,18.10
2017-08-02T01:51:21.854Z,18.00
2017-08-02T01:53:49.367Z,18.00
2017-08-02T01:56:17.681Z,18.10
2017-08-02T01:58:45.208Z,18.00
2017-08-02T02:01:13.490Z,18.10
2017-08-02T02:03:41.793Z,18.10
2017-08-02T02:06:09.323Z,18.10
2017-08-02T02:08:37.626Z,18.10
2017-08-02T02:11:05.147Z,18.10
2017-08-02T02:13:32.684Z,18.00
2017-08-02T02:16:00.199Z,18.00
2017-08-02T02:18:28.522Z,17.80
2017-08-02T02:20:56.809Z,17.60
2017-08-02T02:23:24.342Z,17.60
2017-08-02T02:25:51.878Z,17.50
2017-08-02T02:28:19.393Z,17.30
2017-08-02T02:30:46.930Z,17.30
2017-08-02T02:33:15.230Z,17.40
2017-08-02T02:35:42.778Z,17.40
2017-08-02T02:38:10.298Z,17.50
2017-08-02T02:40:37.834Z,17.60
2017-08-02T02:43:06.119Z,17.60
2017-08-02T02:45:33.662Z,17.60
2017-08-02T02:48:01.180Z,17.60
2017-08-02T02:50:28.722Z,17.50
2017-08-02T02:52:56.274Z,17.50
2017-08-02T02:55:23.810Z,17.60
2017-08-02T02:57:51.327Z,17.70
2017-08-02T03:00:18.847Z,17.70
2017-08-02T03:02:46.384Z,17.60
2017-08-02T03:05:13.918Z,17.60
2017-08-02T03:07:41.457Z,17.60
2017-08-02T03:10:08.979Z,17.60
2017-08-02T03:12:36.519Z,17.70
2017-08-02T03:15:04.043Z,17.70
2017-08-02T03:17:31.586Z,17.70
2017-08-02T03:19:59.105Z,17.80
2017-08-02T03:22:26.642Z,17.80
2017-08-02T03:24:54.162Z,17.80
2017-08-02T03:27:21.682Z,17.70
2017-08-02T03:29:49.223Z,17.60
2017-08-02T03:32:16.740Z,17.50
2017-08-02T03:34:44.278Z,17.40
2017-08-02T03:37:11.795Z,17.30
2017-08-02T03:39:40.098Z,17.20
2017-08-02T03:42:07.621Z,17.10
2017-08-02T03:44:35.158Z,17.10
2017-08-02T03:47:03.447Z,17.10
2017-08-02T03:49:30.986Z,17.10
2017-08-02T03:51:58.508Z,17.10
2017-08-02T03:54:26.027Z,17.20
2017-08-02T03:56:53.567Z,17.20
2017-08-02T03:59:21.087Z,17.20
2017-08-02T04:01:49.385Z,17.40
2017-08-02T04:04:16.914Z,17.40
2017-08-02T04:06:44.462Z,17.40
2017-08-02T04:09:11.978Z,17.50
2017-08-02T04:11:39.518Z,17.50
2017-08-02T04:14:07.810Z,17.40
2017-08-02T04:16:35.338Z,17.40
2017-08-02T04:19:02.880Z,17.40
2017-08-02T04:21:30.394Z,17.50
2017-08-02T04:23:57.938Z,17.60
2017-08-02T04:26:25.458Z,17.70
2017-08-02T04:28:52.995Z,17.70
2017-08-02T04:31:20.511Z,17.70
2017-08-02T04:33:48.056Z,17.70
2017-08-02T04:36:16.399Z,17.90
2017-08-02T04:38:43.941Z,17.90
2017-08-02T04:41:11.467Z,18.00
2017-08-02T04:43:38.986Z,18.20
2017-08-02T04:46:06.527Z,18.30
2017-08-02T04:48:34.047Z,18.40
2017-08-02T04:51:01.590Z,18.50
2017-08-02T04:53:29.110Z,18.70
2017-08-02T04:55:56.647Z,18.80
2017-08-02T04:58:24.170Z,19.00
2017-08-02T05:00:51.711Z,19.30
2017-08-02T05:03:19.235Z,19.60
2017-08-02T05:05:46.780Z,19.90
2017-08-02T05:08:14.303Z,20.40
2017-08-02T05:10:41.825Z,20.80
2017-08-02T05:13:09.374Z,21.30
2017-08-02T05:15:36.908Z,21.40
2017-08-02T05:18:04.451Z,21.30
2017-08-02T05:20:31.972Z,21.10
2017-08-02T05:22:59.514Z,20.90
2017-08-02T05:25:27.031Z,20.60
2017-08-02T05:27:54.569Z,20.40
2017-08-02T05:30:22.095Z,20.20
2017-08-02T05:32:50.398Z,20.00
2017-08-02T05:35:17.914Z,20.00
2017-08-02T05:37:46.226Z,20.10
2017-08-02T05:40:13.753Z,20.10
2017-08-02T05:42:41.279Z,20.30
2017-08-02T05:45:08.825Z,20.60
2017-08-02T05:47:36.348Z,21.00
2017-08-02T05:50:03.891Z,21.50
2017-08-02T05:52:31.408Z,22.00
2017-08-02T05:54:59.712Z,22.70
2017-08-02T05:57:27.247Z,22.70
2017-08-02T05:59:54.797Z,23.70
2017-08-02T06:02:22.318Z,24.90
2017-08-02T06:04:49.865Z,26.10
2017-08-02T06:07:17.387Z,26.60
2017-08-02T06:09:44.940Z,26.60
2017-08-02T06:12:14.164Z,26.40
2017-08-02T06:14:41.814Z,26.20
2017-08-02T06:17:09.346Z,25.90
2017-08-02T06:19:37.638Z,26.00
2017-08-02T06:22:05.442Z,26.00
2017-08-02T06:24:32.971Z,26.10
2017-08-02T06:27:01.627Z,26.30
2017-08-02T06:29:29.227Z,26.40
2017-08-02T06:31:56.771Z,25.80
2017-08-02T06:34:24.295Z,24.80
2017-08-02T06:36:51.830Z,24.10
2017-08-02T06:39:19.359Z,23.50
2017-08-02T06:41:46.907Z,23.50
2017-08-02T06:44:14.442Z,23.60
2017-08-02T06:46:42.789Z,24.00
2017-08-02T06:49:10.313Z,24.00
2017-08-02T06:51:38.109Z,24.20
2017-08-02T06:54:05.656Z,24.50
2017-08-02T06:56:33.174Z,25.10
2017-08-02T06:59:00.718Z,25.80
2017-08-02T07:01:29.006Z,27.20
2017-08-02T07:03:56.550Z,27.20
2017-08-02T07:06:24.842Z,28.50
2017-08-02T07:08:53.151Z,28.10
2017-08-02T07:11:20.679Z,28.10
2017-08-02T07:13:48.223Z,28.00
2017-08-02T07:16:15.744Z,28.30
2017-08-02T07:18:43.274Z,29.00
2017-08-02T07:21:10.814Z,29.20
2017-08-02T07:23:39.918Z,30.10
2017-08-02T07:26:07.466Z,30.10
2017-08-02T07:28:35.762Z,30.70
2017-08-02T07:31:03.302Z,30.60
2017-08-02T07:33:31.594Z,30.70
2017-08-02T07:35:59.130Z,30.60
2017-08-02T07:38:26.653Z,30.10
2017-08-02T07:40:54.193Z,30.50
2017-08-02T07:43:21.715Z,30.20
2017-08-02T07:45:50.027Z,28.70
2017-08-02T07:48:17.543Z,28.60
2017-08-02T07:50:45.059Z,28.30
2017-08-02T07:53:12.597Z,27.50
2017-08-02T07:55:40.118Z,27.30
2017-08-02T07:58:07.664Z,27.40
2017-08-02T08:00:35.186Z,27.30
2017-08-02T08:03:02.726Z,27.90
2017-08-02T08:05:30.242Z,28.40
2017-08-02T08:07:57.783Z,28.30
2017-08-02T08:10:25.307Z,28.30
2017-08-02T08:12:52.857Z,28.10
2017-08-02T08:15:21.147Z,27.60
2017-08-02T08:17:48.676Z,27.60
2017-08-02T08:20:16.233Z,27.70
2017-08-02T08:22:43.763Z,27.70
2017-08-02T08:25:11.299Z,27.30
2017-08-02T08:27:38.820Z,27.80
2017-08-02T08:30:06.354Z,28.30
2017-08-02T08:32:33.870Z,28.80
2017-08-02T08:35:01.415Z,29.30
2017-08-02T08:37:28.942Z,28.80
2017-08-02T08:39:56.497Z,29.40
2017-08-02T08:42:24.018Z,30.10
2017-08-02T08:44:52.353Z,29.40
2017-08-02T08:47:19.879Z,29.30
2017-08-02T08:49:47.400Z,28.20
2017-08-02T08:52:14.934Z,28.10
2017-08-02T08:54:42.483Z,27.90
2017-08-02T08:57:10.032Z,27.60
2017-08-02T08:59:37.550Z,27.70
2017-08-02T09:02:05.864Z,27.60
2017-08-02T09:04:33.386Z,27.60
2017-08-02T09:07:01.702Z,28.60
2017-08-02T09:09:29.228Z,28.60
2017-08-02T09:11:57.539Z,29.50
2017-08-02T09:16:49.846Z,29.50
2017-08-02T09:19:17.370Z,30.00
2017-08-02T09:21:44.902Z,30.00
2017-08-02T09:24:12.451Z,30.30
2017-08-02T09:26:39.971Z,30.40
2017-08-02T09:29:07.514Z,30.60
2017-08-02T09:31:35.822Z,30.80
2017-08-02T09:34:03.367Z,30.70
2017-08-02T09:36:30.887Z,30.80
2017-08-02T09:38:58.444Z,30.60
2017-08-02T09:41:25.975Z,30.80
2017-08-02T09:43:53.525Z,30.80
2017-08-02T09:46:21.050Z,31.30
2017-08-02T09:48:48.598Z,31.50
2017-08-02T09:51:16.124Z,31.10
2017-08-02T09:53:44.452Z,31.40
2017-08-02T09:56:12.010Z,31.40
2017-08-02T09:58:39.530Z,31.50
2017-08-02T10:01:07.834Z,31.20
2017-08-02T10:03:35.357Z,31.10
2017-08-02T10:06:03.668Z,30.50
2017-08-02T10:08:31.187Z,30.50
2017-08-02T10:10:58.728Z,30.30
2017-08-02T10:13:26.267Z,30.50
2017-08-02T10:15:54.566Z,31.30
2017-08-02T10:18:22.091Z,31.30
2017-08-02T10:20:49.644Z,31.40
2017-08-02T10:23:17.175Z,31.10
2017-08-02T10:25:44.718Z,31.00
2017-08-02T10:28:12.239Z,31.40
2017-08-02T10:30:40.042Z,31.50
2017-08-02T10:33:08.505Z,32.20
2017-08-02T10:35:36.031Z,32.20
2017-08-02T10:38:03.575Z,32.10
2017-08-02T10:40:31.102Z,32.20
2017-08-02T10:42:58.648Z,32.30
2017-08-02T10:45:26.178Z,32.20
2017-08-02T10:47:53.710Z,31.80
2017-08-02T10:50:21.237Z,31.80
2017-08-02T10:52:48.791Z,31.90
2017-08-02T10:55:17.083Z,31.90
2017-08-02T10:57:44.615Z,31.80
2017-08-02T11:00:12.144Z,31.90
2017-08-02T11:02:39.662Z,32.00
2017-08-02T11:05:07.198Z,31.80
2017-08-02T11:07:34.719Z,31.50
2017-08-02T11:10:02.263Z,31.20
2017-08-02T11:12:29.787Z,31.50
2017-08-02T11:14:57.342Z,31.60
2017-08-02T11:17:24.875Z,31.60
2017-08-02T11:19:52.414Z,31.30
2017-08-02T11:22:19.934Z,31.00
2017-08-02T11:24:48.243Z,30.70
2017-08-02T11:27:15.788Z,30.70
2017-08-02T11:29:43.335Z,31.10
2017-08-02T11:32:10.860Z,31.50
2017-08-02T11:34:38.382Z,32.00
2017-08-02T11:37:05.918Z,32.60
2017-08-02T11:39:33.447Z,32.60
2017-08-02T11:42:00.991Z,32.60
2017-08-02T11:44:28.509Z,32.20
2017-08-02T11:46:56.054Z,32.20
2017-08-02T11:49:23.569Z,31.90
2017-08-02T11:51:51.116Z,32.00
2017-08-02T11:54:18.632Z,32.40
2017-08-02T11:56:46.946Z,33.10
2017-08-02T11:59:14.467Z,33.10
2017-08-02T12:01:42.004Z,32.90
2017-08-02T12:04:09.522Z,32.90
2017-08-02T12:06:37.071Z,32.60
2017-08-02T12:09:04.596Z,32.70
2017-08-02T12:11:32.112Z,32.80
2017-08-02T12:13:59.658Z,32.50
2017-08-02T12:16:27.215Z,32.40
2017-08-02T12:18:54.754Z,32.10
2017-08-02T12:21:22.287Z,31.40
2017-08-02T12:23:49.834Z,30.90
2017-08-02T12:26:17.370Z,30.70
2017-08-02T12:28:44.917Z,30.60
2017-08-02T12:31:12.444Z,30.60
2017-08-02T12:33:39.996Z,30.60
2017-08-02T12:36:07.519Z,30.70
2017-08-02T12:38:35.065Z,30.60
2017-08-02T12:41:02.587Z,30.40
2017-08-02T12:43:30.878Z,30.90
2017-08-02T12:45:58.412Z,30.90
2017-08-02T12:48:25.932Z,31.40
2017-08-02T12:50:53.468Z,31.50
2017-08-02T12:53:20.994Z,31.90
2017-08-02T12:55:48.543Z,32.20
2017-08-02T12:58:16.067Z,32.20
2017-08-02T13:00:43.614Z,32.40
2017-08-02T13:03:11.918Z,32.60
2017-08-02T13:05:39.455Z,32.80
2017-08-02T13:08:06.980Z,32.30
2017-08-02T13:10:34.523Z,32.20
2017-08-02T13:13:02.047Z,31.90
2017-08-02T13:15:29.571Z,31.40
2017-08-02T13:17:57.881Z,31.10
2017-08-02T13:20:26.173Z,31.40
2017-08-02T13:22:53.712Z,31.30
2017-08-02T13:25:21.226Z,31.30
2017-08-02T13:27:48.765Z,31.00
2017-08-02T13:30:16.295Z,30.60
2017-08-02T13:32:43.842Z,30.50
2017-08-02T13:35:11.367Z,30.30
2017-08-02T13:37:38.914Z,30.30
2017-08-02T13:40:06.443Z,30.20
2017-08-02T13:42:34.007Z,30.10
2017-08-02T13:45:02.287Z,29.90
2017-08-02T13:47:29.819Z,29.90
2017-08-02T13:49:57.360Z,29.80
2017-08-02T13:52:25.211Z,29.80
2017-08-02T13:54:52.752Z,29.70
2017-08-02T13:57:20.280Z,29.60
2017-08-02T13:59:48.583Z,29.80
2017-08-02T14:02:16.115Z,29.80
2017-08-02T14:04:43.661Z,30.30
2017-08-02T14:07:11.183Z,30.80
2017-08-02T14:09:38.735Z,31.00
2017-08-02T14:12:06.259Z,31.30
2017-08-02T14:14:33.807Z,31.40
2017-08-02T14:17:01.336Z,31.40
2017-08-02T14:19:28.863Z,31.10
2017-08-02T14:21:56.407Z,30.70
2017-08-02T14:24:23.923Z,30.50
2017-08-02T14:26:51.464Z,30.00
2017-08-02T14:29:19.757Z,29.60
2017-08-02T14:31:47.299Z,29.60
2017-08-02T14:34:14.820Z,29.60
2017-08-02T14:36:43.123Z,29.40
2017-08-02T14:39:10.644Z,29.40
2017-08-02T14:41:38.194Z,29.50
2017-08-02T14:44:05.712Z,29.50
2017-08-02T14:46:33.262Z,29.50
2017-08-02T14:49:00.794Z,29.50
2017-08-02T14:51:29.103Z,29.70
2017-08-02T14:53:57.397Z,29.80
2017-08-02T14:56:24.948Z,29.80
2017-08-02T14:58:53.255Z,29.90
2017-08-02T15:01:20.789Z,29.90
2017-08-02T15:03:48.369Z,29.90
2017-08-02T15:06:15.891Z,30.00
2017-08-02T15:08:43.427Z,30.00
2017-08-02T15:11:10.953Z,30.00
2017-08-02T15:13:38.498Z,30.00
2017-08-02T15:16:06.018Z,30.00
2017-08-02T15:18:33.654Z,30.00
2017-08-02T15:21:01.207Z,29.90
2017-08-02T15:23:28.756Z,29.80
2017-08-02T15:25:56.320Z,30.00
2017-08-02T15:28:23.862Z,30.10
2017-08-02T15:30:51.407Z,30.00
2017-08-02T15:33:18.930Z,29.80
2017-08-02T15:35:46.475Z,29.60
2017-08-02T15:38:14.759Z,29.40
2017-08-02T15:40:43.063Z,29.40
2017-08-02T15:43:10.578Z,29.40
2017-08-02T15:45:38.134Z,29.40
2017-08-02T15:48:05.651Z,29.30
2017-08-02T15:50:33.958Z,29.20
2017-08-02T15:53:01.486Z,29.20
2017-08-02T15:55:29.028Z,29.20
2017-08-02T15:57:56.547Z,29.10
2017-08-02T16:00:24.091Z,29.10
2017-08-02T16:02:54.170Z,28.90
2017-08-02T16:05:21.752Z,28.90
2017-08-02T16:07:49.297Z,28.80
2017-08-02T16:10:16.811Z,28.90
2017-08-02T16:12:44.352Z,28.80
2017-08-02T16:15:12.642Z,28.80
2017-08-02T16:17:40.183Z,28.80
2017-08-02T16:20:07.718Z,28.90
2017-08-02T16:22:35.259Z,29.00
2017-08-02T16:25:02.778Z,29.00
2017-08-02T16:27:30.314Z,29.00
2017-08-02T16:29:57.835Z,28.90
2017-08-02T16:32:26.002Z,28.70
2017-08-02T16:34:53.518Z,28.50
2017-08-02T16:37:21.040Z,28.20
2017-08-02T16:39:48.579Z,28.10
2017-08-02T16:42:16.866Z,28.00
2017-08-02T16:44:44.411Z,28.00
2017-08-02T16:47:11.930Z,28.00
2017-08-02T16:49:39.471Z,28.00
2017-08-02T16:52:06.999Z,27.80
2017-08-02T16:54:34.545Z,27.60
2017-08-02T16:57:02.067Z,27.40
2017-08-02T16:59:29.611Z,27.20
2017-08-02T17:01:57.132Z,26.90
2017-08-02T17:04:24.655Z,26.80
2017-08-02T17:06:52.206Z,26.70
2017-08-02T17:09:19.728Z,26.60
2017-08-02T17:11:48.039Z,26.40
2017-08-02T17:14:15.563Z,26.40
2017-08-02T17:16:43.108Z,26.30
2017-08-02T17:19:10.632Z,26.20
2017-08-02T17:21:38.167Z,26.10
2017-08-02T17:24:05.719Z,26.00
2017-08-02T17:26:33.259Z,26.00
2017-08-02T17:29:00.779Z,25.90
2017-08-02T17:31:28.364Z,25.80
2017-08-02T17:33:55.902Z,25.70
2017-08-02T17:36:23.414Z,25.60
2017-08-02T17:38:50.954Z,25.60
2017-08-02T17:41:18.474Z,25.40
2017-08-02T17:43:46.778Z,25.40
2017-08-02T17:46:14.307Z,25.30
2017-08-02T17:48:41.850Z,25.20
2017-08-02T17:51:09.375Z,25.20
2017-08-02T17:53:36.933Z,25.20
2017-08-02T17:56:04.455Z,25.20
2017-08-02T17:58:31.971Z,25.20
2017-08-02T18:00:59.510Z,25.10
2017-08-02T18:03:27.031Z,24.80
2017-08-02T18:05:55.338Z,24.70
2017-08-02T18:08:22.853Z,24.70
2017-08-02T18:10:50.394Z,24.60
2017-08-02T18:13:17.977Z,24.50
2017-08-02T18:15:45.579Z,24.50
2017-08-02T18:18:13.141Z,24.40
2017-08-02T18:20:40.752Z,24.40
2017-08-02T18:23:09.072Z,24.40
2017-08-02T18:25:36.590Z,24.30
2017-08-02T18:28:04.963Z,24.20
2017-08-02T18:30:32.493Z,24.20
2017-08-02T18:33:00.030Z,24.00
2017-08-02T18:35:27.552Z,23.90
2017-08-02T18:37:55.155Z,23.90
2017-08-02T18:40:22.671Z,23.90
2017-08-02T18:42:50.299Z,23.90
2017-08-02T18:45:17.862Z,23.80
2017-08-02T18:47:45.450Z,23.60
2017-08-02T18:50:13.759Z,23.40
2017-08-02T18:52:41.280Z,23.40
2017-08-02T18:55:08.934Z,23.30
2017-08-02T18:57:36.467Z,23.30
2017-08-02T19:00:04.078Z,23.30
2017-08-02T19:02:31.655Z,23.30
2017-08-02T19:04:59.219Z,23.20
2017-08-02T19:07:26.768Z,23.10
2017-08-02T19:09:54.291Z,23.00
2017-08-02T19:12:21.898Z,23.00
2017-08-02T19:14:49.423Z,23.00
2017-08-02T19:17:17.040Z,23.00
2017-08-02T19:19:45.365Z,22.90
2017-08-02T19:22:12.974Z,22.80
2017-08-02T19:24:40.498Z,22.60
2017-08-02T19:27:08.779Z,22.40
2017-08-02T19:29:36.324Z,22.40
2017-08-02T19:32:03.912Z,22.40
2017-08-02T19:34:32.959Z,22.40
2017-08-02T19:37:00.547Z,22.40
2017-08-02T19:39:28.916Z,22.20
2017-08-02T19:41:56.442Z,22.10
2017-08-02T19:44:24.755Z,22.10
2017-08-02T19:46:52.335Z,22.00
2017-08-02T19:49:19.854Z,22.10
2017-08-02T19:51:47.397Z,22.20
2017-08-02T19:54:14.992Z,22.10
2017-08-02T19:56:42.531Z,22.00
2017-08-02T19:59:10.057Z,21.90
2017-08-02T20:01:37.591Z,21.80
2017-08-02T20:04:05.170Z,21.70
2017-08-02T20:06:32.772Z,21.70
2017-08-02T20:09:00.359Z,21.70
2017-08-02T20:11:27.882Z,21.60
2017-08-02T20:13:55.423Z,21.50
2017-08-02T20:16:22.943Z,21.30
2017-08-02T20:18:50.484Z,21.20
2017-08-02T20:21:18.003Z,21.00
2017-08-02T20:23:45.544Z,20.80
2017-08-02T20:26:13.067Z,20.60
2017-08-02T20:28:40.668Z,20.60
2017-08-02T20:31:08.186Z,20.60
2017-08-02T20:33:35.732Z,20.60
2017-08-02T20:36:04.064Z,20.60
2017-08-02T20:38:31.608Z,20.60
2017-08-02T20:40:59.155Z,20.70
2017-08-02T20:43:26.712Z,20.80
2017-08-02T20:45:54.253Z,20.80
2017-08-02T20:48:22.581Z,20.80
2017-08-02T20:50:50.123Z,20.80
2017-08-02T20:53:17.640Z,20.80
2017-08-02T20:55:45.195Z,20.70
2017-08-02T20:58:12.710Z,20.50
2017-08-02T21:00:40.282Z,20.30
2017-08-02T21:03:07.802Z,20.30
2017-08-02T21:05:35.384Z,20.30
2017-08-02T21:08:03.699Z,20.40
2017-08-02T21:10:31.220Z,20.40
2017-08-02T21:12:58.799Z,20.40
2017-08-02T21:15:26.315Z,20.40
2017-08-02T21:17:53.860Z,20.20
2017-08-02T21:20:21.378Z,20.20
2017-08-02T21:22:48.914Z,20.20
2017-08-02T21:25:16.438Z,20.30
2017-08-02T21:27:44.738Z,20.30
2017-08-02T21:30:12.255Z,20.30
2017-08-02T21:32:39.808Z,20.20
2017-08-02T21:35:07.331Z,20.10
2017-08-02T21:37:34.851Z,20.00
2017-08-02T21:40:02.404Z,20.00
2017-08-02T21:42:30.726Z,19.90
2017-08-02T21:44:59.030Z,19.80
2017-08-02T21:47:27.366Z,19.70
2017-08-02T21:49:54.910Z,19.70
2017-08-02T21:52:22.434Z,19.60
2017-08-02T21:54:49.970Z,19.60
2017-08-02T21:57:17.495Z,19.60
2017-08-02T21:59:45.035Z,19.50
2017-08-02T22:02:12.551Z,19.60
2017-08-02T22:04:40.092Z,19.50
2017-08-02T22:07:07.641Z,19.30
2017-08-02T22:09:35.154Z,19.20
2017-08-02T22:12:02.695Z,19.10
2017-08-02T22:14:30.223Z,18.90
2017-08-02T22:16:57.767Z,18.90
2017-08-02T22:19:25.297Z,18.90
2017-08-02T22:21:52.845Z,19.00
2017-08-02T22:24:20.363Z,19.00
2017-08-02T22:26:47.886Z,19.00
2017-08-02T22:29:15.421Z,19.10
2017-08-02T22:31:42.935Z,19.10
2017-08-02T22:34:11.248Z,18.90
2017-08-02T22:36:38.766Z,18.90
2017-08-02T22:39:06.304Z,18.80
2017-08-02T22:41:33.821Z,18.60
2017-08-02T22:44:01.359Z,18.50
2017-08-02T22:46:28.874Z,18.50
2017-08-02T22:48:57.190Z,18.50
2017-08-02T22:51:24.711Z,18.50
2017-08-02T22:53:52.234Z,18.50
2017-08-02T22:56:19.779Z,18.40
2017-08-02T22:58:47.310Z,18.20
2017-08-02T23:01:14.856Z,18.10
2017-08-02T23:03:42.375Z,18.10
2017-08-02T23:06:09.915Z,18.10
2017-08-02T23:08:37.435Z,18.20
2017-08-02T23:11:05.738Z,18.20
2017-08-02T23:13:34.046Z,18.20
2017-08-02T23:16:01.592Z,18.20
2017-08-02T23:18:29.110Z,18.30
2017-08-02T23:20:57.407Z,18.30
2017-08-02T23:23:24.951Z,18.30
2017-08-02T23:25:52.470Z,18.20
2017-08-02T23:28:20.030Z,18.10
2017-08-02T23:30:47.559Z,18.00
2017-08-02T23:33:15.101Z,18.00
2017-08-02T23:35:42.619Z,17.80
2017-08-02T23:38:10.927Z,17.70
2017-08-02T23:40:38.442Z,17.70
2017-08-02T23:43:05.990Z,17.70
2017-08-02T23:45:33.507Z,17.60
2017-08-02T23:48:01.031Z,17.60
2017-08-02T23:50:28.561Z,17.60
2017-08-02T23:52:56.844Z,17.70
2017-08-02T23:55:25.152Z,17.70
2017-08-02T23:57:52.666Z,17.70
